Somis, CA

4:29 PM PDT on September 16, 2014 (GMT -0700)
MesoWest South Mountain West CA US LOXWFO | Change Station
CLOSE
Current Station
Personal Weather Station
Location: Ventura, CA
Elevation: 660 ft
Nearby Weather Stations

Elev 660 ft 34.28 °N, 119.09 °W | Updated 502 days ago

Clear
Clear
79.0 °F
Feels Like 79.0 °F
N
-
Wind Variable Wind from NNE

Today
High -- | Low -- °F
--% Chance of Precip.
Yesterday
High -- | Low -- °F
Precip. -- in
6:40 AM 7:01 PM
Last Quarter, 41% visible
Pressure 29.71 in
Visibility 10.0 miles
Clouds Clear
Dew Point 10.0 °F
Humidity 7%
Rainfall -999.00 in
Snow Depth 0 in , 0 in , 0 in
UV 4 out of 12
Pollen 7.60 out of 12
Ozone Good
PM2.5 Moderate
Flu Activity Not available.
METAR KCMA 162255Z 23007KT 10SM CLR 31/17 A2969 RMK AO2 SLP061 T03060167

More Conditions Fewer Conditions

Pressure 29.71 in
Visibility 10.0 miles
Clouds Clear
Dew Point 10.0 °F
Humidity 7%
Rainfall -999.00 in
Snow Depth 0 in , 0 in , 0 in
UV 4 out of 12
Pollen 7.60 out of 12
Ozone Good
PM2.5 Moderate
Flu Activity Not available.
METAR KCMA 162255Z 23007KT 10SM CLR 31/17 A2969 RMK AO2 SLP061 T03060167

More Conditions Fewer Conditions

10-Day Weather Forecast

Almanac

Astronomy

Sep. 16, 2014 Rise Set
Actual Time 6:40 AM PDT 7:01 PM PDT
Civil Twilight 6:15 AM PDT 7:26 PM PDT
Nautical Twilight 5:45 AM PDT 7:55 PM PDT
Astronomical Twilight 5:15 AM PDT 8:25 PM PDT
Moon 12:05 AM PDT 2:18 PM PDT
Length of Visible Light 13h 11m
Length of Day
12h 21m
Tomorrow will be 2m 7s shorter.
Last Quarter, 41% of the Moon is Illuminated
Today
Last Quarter
Sep 24
New
Oct 1
First Quarter
Oct 8
Full
Oct 15
Last Quarter

Today's Extremes

State Highs State Lows

Community

WunderPhotos

Upload Photos

1,753,912 photos uploaded!

Nearby

Air Quality

  Air Quality AQ Index Pollutant
Yesterday Moderate
PM2.5
Yesterday Good
OZONE
Current Moderate
PM2.5
Current Good
OZONE
Tuesday Moderate
PM2.5
Tuesday Good
OZONE
Wednesday Moderate
PM2.5
Wednesday Good
OZONE
Thursday Moderate
PM2.5
Thursday Good
OZONE
Friday Moderate
PM2.5
Friday Good
OZONE
Saturday Moderate
PM2.5
Saturday Good
OZONE

Snow Depth

Station Depth Elevation
Adin Mountain 0 in 6200 ft
Echo Peak 0 in 7800 ft
Leavitt Meadows 0 in 7200 ft
CSS Lab 0 in 6900 ft

Earthquake Activity

City Distance Mag. Time & Date
Inyokern, California 128 miles 3.2 5:56 PM PDT
2014-09-14
Minimum magnitude displayed is 2.5.

Coastal Water Temperatures

Place Temperature
Santa Monica Pier 73.9 °F
Los Angeles, CA 69.1 °F
Port San Luis, CA 62.1 °F

Nearby Weather Stations